sensor_id;sensor_type;location;lat;lon;timestamp;pressure;altitude;pressure_sealevel;temperature;humidity
63582;BME280;49727;51.078;17.066;2022-12-19T00:05:43;101988.34;;;-10.23;76.80
63582;BME280;49727;51.078;17.066;2022-12-19T00:20:44;102003.75;;;-10.46;76.55
63582;BME280;49727;51.078;17.066;2022-12-19T00:35:44;101970.19;;;-10.57;77.09
63582;BME280;49727;51.078;17.066;2022-12-19T00:50:44;101977.03;;;-10.59;77.14
63582;BME280;49727;51.078;17.066;2022-12-19T01:05:45;101978.75;;;-10.58;77.14
63582;BME280;49727;51.078;17.066;2022-12-19T01:20:45;101960.72;;;-10.57;77.56
63582;BME280;49727;51.078;17.066;2022-12-19T01:35:48;101923.81;;;-10.60;77.84
63582;BME280;49727;51.078;17.066;2022-12-19T02:05:56;101862.00;;;-10.62;77.60
63582;BME280;49727;51.078;17.066;2022-12-19T02:36:52;101835.41;;;-10.42;77.01
63582;BME280;49727;51.078;17.066;2022-12-19T02:51:53;101801.06;;;-10.40;77.03
63582;BME280;49727;51.078;17.066;2022-12-19T03:08:04;101798.47;;;-10.33;76.98
63582;BME280;49727;51.078;17.066;2022-12-19T03:22:30;101771.00;;;-10.14;77.92
63582;BME280;49727;51.078;17.066;2022-12-19T03:37:33;101761.53;;;-10.06;77.78
63582;BME280;49727;51.078;17.066;2022-12-19T04:08:07;101716.00;;;-10.01;77.91
63582;BME280;49727;51.078;17.066;2022-12-19T04:23:14;101705.69;;;-10.01;77.67
63582;BME280;49727;51.078;17.066;2022-12-19T04:38:17;101722.00;;;-10.04;77.38
63582;BME280;49727;51.078;17.066;2022-12-19T04:53:18;101698.81;;;-10.04;76.62
63582;BME280;49727;51.078;17.066;2022-12-19T05:08:18;101675.63;;;-10.08;76.55
63582;BME280;49727;51.078;17.066;2022-12-19T05:23:19;101693.66;;;-10.04;76.65
63582;BME280;49727;51.078;17.066;2022-12-19T05:38:19;101673.03;;;-9.97;77.84
63582;BME280;49727;51.078;17.066;2022-12-19T05:53:20;101674.72;;;-9.87;77.48
63582;BME280;49727;51.078;17.066;2022-12-19T06:08:20;101653.22;;;-9.81;77.82
63582;BME280;49727;51.078;17.066;2022-12-19T06:23:21;101675.59;;;-9.87;77.61
63582;BME280;49727;51.078;17.066;2022-12-19T06:38:22;101670.38;;;-9.62;77.20
63582;BME280;49727;51.078;17.066;2022-12-19T06:53:22;101658.19;;;-9.30;77.80
63582;BME280;49727;51.078;17.066;2022-12-19T07:08:23;101650.25;;;-8.99;77.47
63582;BME280;49727;51.078;17.066;2022-12-19T07:23:23;101626.50;;;-8.36;77.38
63582;BME280;49727;51.078;17.066;2022-12-19T07:38:23;101610.22;;;-7.65;77.13
63582;BME280;49727;51.078;17.066;2022-12-19T07:53:24;101610.00;;;-6.34;77.21
63582;BME280;49727;51.078;17.066;2022-12-19T08:08:24;101607.22;;;-4.98;76.45
63582;BME280;49727;51.078;17.066;2022-12-19T08:23:25;101584.34;;;-2.95;74.38
63582;BME280;49727;51.078;17.066;2022-12-19T08:38:25;101571.66;;;-0.06;67.39
63582;BME280;49727;51.078;17.066;2022-12-19T08:53:28;101563.28;;;-0.14;65.78
63582;BME280;49727;51.078;17.066;2022-12-19T09:08:29;101552.38;;;3.24;62.00
63582;BME280;49727;51.078;17.066;2022-12-19T09:23:30;101539.66;;;8.33;54.52
63582;BME280;49727;51.078;17.066;2022-12-19T09:38:32;101522.38;;;10.40;47.29
63582;BME280;49727;51.078;17.066;2022-12-19T09:54:19;101482.31;;;13.23;41.87
63582;BME280;49727;51.078;17.066;2022-12-19T10:09:31;101469.28;;;15.07;37.03
63582;BME280;49727;51.078;17.066;2022-12-19T11:10:43;101407.50;;;15.88;26.37
63582;BME280;49727;51.078;17.066;2022-12-19T11:25:52;101360.28;;;14.81;26.17
63582;BME280;49727;51.078;17.066;2022-12-19T11:40:58;101350.50;;;12.24;28.88
63582;BME280;49727;51.078;17.066;2022-12-19T11:56:06;101313.53;;;9.62;33.25
63582;BME280;49727;51.078;17.066;2022-12-19T12:26:27;101322.41;;;9.01;36.06
63582;BME280;49727;51.078;17.066;2022-12-19T12:56:50;101275.09;;;7.11;38.95
63582;BME280;49727;51.078;17.066;2022-12-19T13:12:01;101247.16;;;7.07;38.61
63582;BME280;49727;51.078;17.066;2022-12-19T13:42:24;101267.84;;;2.08;48.33
63582;BME280;49727;51.078;17.066;2022-12-19T13:57:46;101254.91;;;1.09;50.60
63582;BME280;49727;51.078;17.066;2022-12-19T14:12:48;101276.38;;;0.33;53.00
63582;BME280;49727;51.078;17.066;2022-12-19T14:28:14;101257.81;;;-0.17;55.49
63582;BME280;49727;51.078;17.066;2022-12-19T14:43:27;101250.88;;;-0.35;56.89
63582;BME280;49727;51.078;17.066;2022-12-19T14:58:40;101232.25;;;-0.48;58.21
63582;BME280;49727;51.078;17.066;2022-12-19T15:13:40;101210.59;;;-0.69;59.01
63582;BME280;49727;51.078;17.066;2022-12-19T15:28:45;101211.41;;;-0.86;60.61
63582;BME280;49727;51.078;17.066;2022-12-19T15:43:45;101195.69;;;-1.05;61.26
63582;BME280;49727;51.078;17.066;2022-12-19T15:58:46;101172.72;;;-0.98;61.81
63582;BME280;49727;51.078;17.066;2022-12-19T16:13:52;101156.50;;;-0.88;62.43
63582;BME280;49727;51.078;17.066;2022-12-19T16:28:53;101142.78;;;-0.74;63.33
63582;BME280;49727;51.078;17.066;2022-12-19T16:43:53;101137.25;;;-0.68;63.51
63582;BME280;49727;51.078;17.066;2022-12-19T16:58:55;101133.81;;;-0.50;63.62
63582;BME280;49727;51.078;17.066;2022-12-19T17:14:02;101128.03;;;-0.40;63.87
63582;BME280;49727;51.078;17.066;2022-12-19T17:29:03;101144.97;;;-0.29;63.92
63582;BME280;49727;51.078;17.066;2022-12-19T17:44:04;101106.00;;;-0.18;63.98
63582;BME280;49727;51.078;17.066;2022-12-19T17:59:04;101118.00;;;-0.14;63.95
63582;BME280;49727;51.078;17.066;2022-12-19T18:14:04;101125.78;;;-0.12;64.30
63582;BME280;49727;51.078;17.066;2022-12-19T18:29:05;101087.19;;;-0.09;64.30
63582;BME280;49727;51.078;17.066;2022-12-19T18:44:05;101082.13;;;-0.12;65.21
63582;BME280;49727;51.078;17.066;2022-12-19T18:59:05;101070.56;;;-0.08;66.10
63582;BME280;49727;51.078;17.066;2022-12-19T19:14:06;101046.06;;;0.09;66.32
63582;BME280;49727;51.078;17.066;2022-12-19T19:29:06;101035.81;;;0.22;66.34
63582;BME280;49727;51.078;17.066;2022-12-19T19:44:07;101060.56;;;0.32;66.09
63582;BME280;49727;51.078;17.066;2022-12-19T19:59:07;101048.09;;;0.54;65.98
63582;BME280;49727;51.078;17.066;2022-12-19T20:14:07;101054.69;;;0.61;65.53
63582;BME280;49727;51.078;17.066;2022-12-19T20:29:08;101020.25;;;0.67;65.85
63582;BME280;49727;51.078;17.066;2022-12-19T20:44:10;101014.66;;;0.73;65.71
63582;BME280;49727;51.078;17.066;2022-12-19T20:59:11;101022.53;;;0.57;66.05
63582;BME280;49727;51.078;17.066;2022-12-19T21:14:11;101031.25;;;0.58;66.79
63582;BME280;49727;51.078;17.066;2022-12-19T21:29:12;100998.59;;;0.79;66.62
63582;BME280;49727;51.078;17.066;2022-12-19T21:44:12;100991.56;;;0.80;67.19
63582;BME280;49727;51.078;17.066;2022-12-19T21:59:15;101008.22;;;0.63;67.47
63582;BME280;49727;51.078;17.066;2022-12-19T22:14:16;100986.25;;;0.49;68.65
63582;BME280;49727;51.078;17.066;2022-12-19T22:29:16;100988.47;;;0.41;69.57
63582;BME280;49727;51.078;17.066;2022-12-19T22:44:19;100981.84;;;0.50;70.64
63582;BME280;49727;51.078;17.066;2022-12-19T22:59:21;100983.13;;;0.43;70.38
63582;BME280;49727;51.078;17.066;2022-12-19T23:14:21;100964.69;;;0.44;71.37
63582;BME280;49727;51.078;17.066;2022-12-19T23:29:21;100939.72;;;0.53;71.63
63582;BME280;49727;51.078;17.066;2022-12-19T23:44:22;100938.78;;;0.70;71.59
63582;BME280;49727;51.078;17.066;2022-12-19T23:59:22;100917.22;;;0.65;71.29
